sensor_id;sensor_type;location;lat;lon;timestamp;pressure;altitude;pressure_sealevel;temperature;humidity
25350;BME280;13302;48.796;11.978;2023-11-18T00:02:35;97523.22;;;7.98;40.01
25350;BME280;13302;48.796;11.978;2023-11-18T00:05:22;97524.03;;;7.98;40.00
25350;BME280;13302;48.796;11.978;2023-11-18T00:08:10;97521.59;;;7.97;39.97
25350;BME280;13302;48.796;11.978;2023-11-18T00:10:57;97526.28;;;7.96;39.79
25350;BME280;13302;48.796;11.978;2023-11-18T00:13:44;97523.53;;;7.96;39.98
25350;BME280;13302;48.796;11.978;2023-11-18T00:16:31;97536.94;;;7.89;40.17
25350;BME280;13302;48.796;11.978;2023-11-18T00:19:19;97530.78;;;7.92;39.72
25350;BME280;13302;48.796;11.978;2023-11-18T00:22:06;97537.44;;;7.91;39.73
25350;BME280;13302;48.796;11.978;2023-11-18T00:24:53;97536.31;;;7.92;39.70
25350;BME280;13302;48.796;11.978;2023-11-18T00:27:42;97536.13;;;7.89;40.00
25350;BME280;13302;48.796;11.978;2023-11-18T00:30:30;97528.81;;;7.84;39.81
25350;BME280;13302;48.796;11.978;2023-11-18T00:33:17;97541.75;;;7.83;39.62
25350;BME280;13302;48.796;11.978;2023-11-18T00:36:05;97541.28;;;7.81;39.57
25350;BME280;13302;48.796;11.978;2023-11-18T00:38:52;97539.16;;;7.78;39.78
25350;BME280;13302;48.796;11.978;2023-11-18T00:41:39;97548.03;;;7.75;39.66
25350;BME280;13302;48.796;11.978;2023-11-18T00:44:26;97547.72;;;7.77;39.96
25350;BME280;13302;48.796;11.978;2023-11-18T00:47:13;97543.69;;;7.74;39.86
25350;BME280;13302;48.796;11.978;2023-11-18T00:50:00;97540.94;;;7.74;39.94
25350;BME280;13302;48.796;11.978;2023-11-18T00:52:50;97536.84;;;7.72;40.22
25350;BME280;13302;48.796;11.978;2023-11-18T00:55:37;97539.44;;;7.68;40.12
25350;BME280;13302;48.796;11.978;2023-11-18T00:58:24;97542.47;;;7.67;40.30
25350;BME280;13302;48.796;11.978;2023-11-18T01:01:12;97542.00;;;7.65;40.45
25350;BME280;13302;48.796;11.978;2023-11-18T01:03:59;97540.06;;;7.65;40.27
25350;BME280;13302;48.796;11.978;2023-11-18T01:06:47;97541.69;;;7.66;40.00
25350;BME280;13302;48.796;11.978;2023-11-18T01:09:35;97545.88;;;7.64;40.48
25350;BME280;13302;48.796;11.978;2023-11-18T01:12:25;97547.34;;;7.61;40.27
25350;BME280;13302;48.796;11.978;2023-11-18T01:15:13;97556.22;;;7.58;40.41
25350;BME280;13302;48.796;11.978;2023-11-18T01:18:01;97543.06;;;7.55;40.62
25350;BME280;13302;48.796;11.978;2023-11-18T01:20:48;97545.81;;;7.55;40.45
25350;BME280;13302;48.796;11.978;2023-11-18T01:23:36;97553.25;;;7.55;40.65
25350;BME280;13302;48.796;11.978;2023-11-18T01:26:23;97547.63;;;7.60;40.51
25350;BME280;13302;48.796;11.978;2023-11-18T01:29:10;97553.94;;;7.60;40.39
25350;BME280;13302;48.796;11.978;2023-11-18T01:31:57;97555.72;;;7.56;40.57
25350;BME280;13302;48.796;11.978;2023-11-18T01:34:45;97553.09;;;7.51;40.88
25350;BME280;13302;48.796;11.978;2023-11-18T01:37:37;97551.16;;;7.52;40.78
25350;BME280;13302;48.796;11.978;2023-11-18T01:40:24;97559.41;;;7.52;40.86
25350;BME280;13302;48.796;11.978;2023-11-18T01:43:11;97553.59;;;7.53;40.78
25350;BME280;13302;48.796;11.978;2023-11-18T01:46:06;97552.09;;;7.47;41.09
25350;BME280;13302;48.796;11.978;2023-11-18T01:48:54;97553.91;;;7.52;40.64
25350;BME280;13302;48.796;11.978;2023-11-18T01:51:42;97560.84;;;7.49;40.62
25350;BME280;13302;48.796;11.978;2023-11-18T01:54:30;97563.44;;;7.46;41.00
25350;BME280;13302;48.796;11.978;2023-11-18T01:57:19;97571.22;;;7.52;40.71
25350;BME280;13302;48.796;11.978;2023-11-18T02:00:07;97565.72;;;7.52;40.51
25350;BME280;13302;48.796;11.978;2023-11-18T02:03:02;97563.44;;;7.54;40.44
25350;BME280;13302;48.796;11.978;2023-11-18T02:05:51;97570.09;;;7.53;40.59
25350;BME280;13302;48.796;11.978;2023-11-18T02:08:38;97580.66;;;7.60;40.44
25350;BME280;13302;48.796;11.978;2023-11-18T02:11:36;97578.72;;;7.60;40.80
25350;BME280;13302;48.796;11.978;2023-11-18T02:14:30;97577.59;;;7.61;40.41
25350;BME280;13302;48.796;11.978;2023-11-18T02:17:21;97574.84;;;7.61;40.23
25350;BME280;13302;48.796;11.978;2023-11-18T02:20:12;97572.09;;;7.61;40.40
25350;BME280;13302;48.796;11.978;2023-11-18T02:23:08;97577.09;;;7.59;40.46
25350;BME280;13302;48.796;11.978;2023-11-18T02:25:55;97565.22;;;7.50;40.77
25350;BME280;13302;48.796;11.978;2023-11-18T02:28:42;97562.66;;;7.54;40.47
25350;BME280;13302;48.796;11.978;2023-11-18T02:31:33;97567.53;;;7.57;40.50
25350;BME280;13302;48.796;11.978;2023-11-18T02:34:25;97564.97;;;7.60;40.42
25350;BME280;13302;48.796;11.978;2023-11-18T02:37:15;97563.84;;;7.61;40.34
25350;BME280;13302;48.796;11.978;2023-11-18T02:40:04;97566.41;;;7.58;40.46
25350;BME280;13302;48.796;11.978;2023-11-18T02:43:02;97559.28;;;7.57;40.32
25350;BME280;13302;48.796;11.978;2023-11-18T02:45:52;97568.00;;;7.59;40.20
25350;BME280;13302;48.796;11.978;2023-11-18T02:48:41;97566.06;;;7.59;40.44
25350;BME280;13302;48.796;11.978;2023-11-18T02:51:29;97568.94;;;7.54;40.58
25350;BME280;13302;48.796;11.978;2023-11-18T02:54:18;97571.41;;;7.56;40.31
25350;BME280;13302;48.796;11.978;2023-11-18T02:57:05;97573.03;;;7.57;40.37
25350;BME280;13302;48.796;11.978;2023-11-18T02:59:52;97571.41;;;7.56;40.35
25350;BME280;13302;48.796;11.978;2023-11-18T03:02:39;97574.66;;;7.58;40.48
25350;BME280;13302;48.796;11.978;2023-11-18T03:05:26;97585.16;;;7.56;40.26
25350;BME280;13302;48.796;11.978;2023-11-18T03:08:14;97579.66;;;7.56;40.44
25350;BME280;13302;48.796;11.978;2023-11-18T03:11:01;97583.03;;;7.53;40.62
25350;BME280;13302;48.796;11.978;2023-11-18T03:13:51;97588.03;;;7.51;40.36
25350;BME280;13302;48.796;11.978;2023-11-18T03:16:38;97590.78;;;7.51;40.35
25350;BME280;13302;48.796;11.978;2023-11-18T03:19:26;97588.47;;;7.44;40.63
25350;BME280;13302;48.796;11.978;2023-11-18T03:22:13;97593.97;;;7.44;40.80
25350;BME280;13302;48.796;11.978;2023-11-18T03:25:00;97589.41;;;7.40;40.96
25350;BME280;13302;48.796;11.978;2023-11-18T03:27:47;97590.13;;;7.45;40.58
25350;BME280;13302;48.796;11.978;2023-11-18T03:30:34;97599.19;;;7.46;40.90
25350;BME280;13302;48.796;11.978;2023-11-18T03:33:23;97600.59;;;7.43;40.80
25350;BME280;13302;48.796;11.978;2023-11-18T03:36:11;97595.63;;;7.45;40.86
25350;BME280;13302;48.796;11.978;2023-11-18T03:38:59;97596.56;;;7.41;40.92
25350;BME280;13302;48.796;11.978;2023-11-18T03:41:48;97601.94;;;7.46;40.68
25350;BME280;13302;48.796;11.978;2023-11-18T03:44:36;97603.13;;;7.53;40.50
25350;BME280;13302;48.796;11.978;2023-11-18T03:47:24;97598.44;;;7.54;40.61
25350;BME280;13302;48.796;11.978;2023-11-18T03:50:11;97605.53;;;7.55;40.40
25350;BME280;13302;48.796;11.978;2023-11-18T03:53:01;97606.69;;;7.54;40.39
25350;BME280;13302;48.796;11.978;2023-11-18T03:55:50;97614.94;;;7.54;40.26
25350;BME280;13302;48.796;11.978;2023-11-18T03:58:38;97614.72;;;7.50;40.36
25350;BME280;13302;48.796;11.978;2023-11-18T04:01:27;97620.22;;;7.50;40.33
25350;BME280;13302;48.796;11.978;2023-11-18T04:04:14;97619.44;;;7.50;40.55
25350;BME280;13302;48.796;11.978;2023-11-18T04:07:04;97615.88;;;7.49;40.56
25350;BME280;13302;48.796;11.978;2023-11-18T04:09:51;97617.00;;;7.48;40.52
25350;BME280;13302;48.796;11.978;2023-11-18T04:12:38;97624.13;;;7.49;40.60
25350;BME280;13302;48.796;11.978;2023-11-18T04:15:25;97618.94;;;7.48;40.28
25350;BME280;13302;48.796;11.978;2023-11-18T04:18:13;97623.31;;;7.49;40.46
25350;BME280;13302;48.796;11.978;2023-11-18T04:21:00;97631.56;;;7.49;40.47
25350;BME280;13302;48.796;11.978;2023-11-18T04:23:47;97627.47;;;7.46;40.56
25350;BME280;13302;48.796;11.978;2023-11-18T04:26:35;97627.28;;;7.43;40.32
25350;BME280;13302;48.796;11.978;2023-11-18T04:29:22;97628.44;;;7.42;40.57
25350;BME280;13302;48.796;11.978;2023-11-18T04:32:10;97622.13;;;7.41;40.54
25350;BME280;13302;48.796;11.978;2023-11-18T04:34:57;97623.66;;;7.33;40.95
25350;BME280;13302;48.796;11.978;2023-11-18T04:37:44;97617.00;;;7.34;40.79
25350;BME280;13302;48.796;11.978;2023-11-18T04:40:33;97619.69;;;7.40;40.72
25350;BME280;13302;48.796;11.978;2023-11-18T04:43:21;97615.47;;;7.42;40.44
25350;BME280;13302;48.796;11.978;2023-11-18T04:46:28;97625.06;;;7.45;40.63
25350;BME280;13302;48.796;11.978;2023-11-18T04:49:15;97622.44;;;7.40;40.68
25350;BME280;13302;48.796;11.978;2023-11-18T04:52:03;97621.94;;;7.38;40.69
25350;BME280;13302;48.796;11.978;2023-11-18T04:54:50;97616.09;;;7.39;40.38
25350;BME280;13302;48.796;11.978;2023-11-18T04:57:37;97615.47;;;7.42;40.37
25350;BME280;13302;48.796;11.978;2023-11-18T05:00:26;97618.56;;;7.41;40.40
25350;BME280;13302;48.796;11.978;2023-11-18T05:03:16;97614.19;;;7.40;40.44
25350;BME280;13302;48.796;11.978;2023-11-18T05:06:03;97625.19;;;7.40;40.43
25350;BME280;13302;48.796;11.978;2023-11-18T05:08:52;97621.78;;;7.43;40.49
25350;BME280;13302;48.796;11.978;2023-11-18T05:11:39;97629.56;;;7.41;40.46
25350;BME280;13302;48.796;11.978;2023-11-18T05:14:26;97627.63;;;7.41;40.47
25350;BME280;13302;48.796;11.978;2023-11-18T05:17:13;97621.31;;;7.41;40.36
25350;BME280;13302;48.796;11.978;2023-11-18T05:20:03;97623.06;;;7.36;40.68
25350;BME280;13302;48.796;11.978;2023-11-18T05:22:51;97628.63;;;7.31;40.80
25350;BME280;13302;48.796;11.978;2023-11-18T05:25:42;97623.25;;;7.26;41.03
25350;BME280;13302;48.796;11.978;2023-11-18T05:28:30;97618.28;;;7.28;41.01
25350;BME280;13302;48.796;11.978;2023-11-18T05:31:18;97623.25;;;7.26;41.05
25350;BME280;13302;48.796;11.978;2023-11-18T05:34:05;97620.69;;;7.30;40.84
25350;BME280;13302;48.796;11.978;2023-11-18T05:36:52;97629.28;;;7.28;40.98
25350;BME280;13302;48.796;11.978;2023-11-18T05:39:41;97625.41;;;7.29;40.92
25350;BME280;13302;48.796;11.978;2023-11-18T05:42:30;97619.56;;;7.31;40.91
25350;BME280;13302;48.796;11.978;2023-11-18T05:45:18;97617.16;;;7.29;40.86
25350;BME280;13302;48.796;11.978;2023-11-18T05:48:15;97629.75;;;7.30;40.84
25350;BME280;13302;48.796;11.978;2023-11-18T05:51:02;97630.56;;;7.31;40.66
25350;BME280;13302;48.796;11.978;2023-11-18T05:53:49;97631.91;;;7.33;40.85
25350;BME280;13302;48.796;11.978;2023-11-18T05:56:38;97623.66;;;7.33;40.81
25350;BME280;13302;48.796;11.978;2023-11-18T05:59:26;97625.59;;;7.33;40.72
25350;BME280;13302;48.796;11.978;2023-11-18T06:02:13;97628.34;;;7.33;40.68
25350;BME280;13302;48.796;11.978;2023-11-18T06:05:05;97629.16;;;7.33;40.58
25350;BME280;13302;48.796;11.978;2023-11-18T06:07:52;97629.16;;;7.33;40.88
25350;BME280;13302;48.796;11.978;2023-11-18T06:10:40;97639.88;;;7.35;40.76
25350;BME280;13302;48.796;11.978;2023-11-18T06:13:27;97651.94;;;7.34;40.61
25350;BME280;13302;48.796;11.978;2023-11-18T06:16:22;97648.72;;;7.32;40.63
25350;BME280;13302;48.796;11.978;2023-11-18T06:19:09;97651.94;;;7.34;40.95
25350;BME280;13302;48.796;11.978;2023-11-18T06:21:57;97654.69;;;7.34;40.83
25350;BME280;13302;48.796;11.978;2023-11-18T06:24:44;97649.34;;;7.29;40.87
25350;BME280;13302;48.796;11.978;2023-11-18T06:27:31;97644.78;;;7.24;41.03
25350;BME280;13302;48.796;11.978;2023-11-18T06:30:19;97643.03;;;7.28;41.15
25350;BME280;13302;48.796;11.978;2023-11-18T06:33:06;97632.50;;;7.30;40.87
25350;BME280;13302;48.796;11.978;2023-11-18T06:35:54;97644.13;;;7.27;41.30
25350;BME280;13302;48.796;11.978;2023-11-18T06:38:46;97649.75;;;7.22;41.10
25350;BME280;13302;48.796;11.978;2023-11-18T06:41:33;97650.56;;;7.23;41.25
25350;BME280;13302;48.796;11.978;2023-11-18T06:44:21;97650.56;;;7.23;41.32
25350;BME280;13302;48.796;11.978;2023-11-18T06:47:10;97660.94;;;7.26;41.40
25350;BME280;13302;48.796;11.978;2023-11-18T06:49:59;97659.00;;;7.26;41.34
25350;BME280;13302;48.796;11.978;2023-11-18T06:52:47;97655.84;;;7.33;41.05
25350;BME280;13302;48.796;11.978;2023-11-18T06:55:35;97653.09;;;7.33;41.37
25350;BME280;13302;48.796;11.978;2023-11-18T06:58:23;97652.09;;;7.29;41.46
25350;BME280;13302;48.796;11.978;2023-11-18T07:01:12;97663.09;;;7.29;41.28
25350;BME280;13302;48.796;11.978;2023-11-18T07:04:00;97658.72;;;7.28;41.60
25350;BME280;13302;48.796;11.978;2023-11-18T07:06:49;97647.53;;;7.24;41.49
25350;BME280;13302;48.796;11.978;2023-11-18T07:09:36;97655.66;;;7.29;41.45
25350;BME280;13302;48.796;11.978;2023-11-18T07:12:23;97666.03;;;7.32;41.44
25350;BME280;13302;48.796;11.978;2023-11-18T07:15:10;97659.63;;;7.37;41.36
25350;BME280;13302;48.796;11.978;2023-11-18T07:17:57;97678.38;;;7.35;41.51
25350;BME280;13302;48.796;11.978;2023-11-18T07:20:44;97662.38;;;7.37;41.35
25350;BME280;13302;48.796;11.978;2023-11-18T07:23:32;97662.88;;;7.39;41.41
25350;BME280;13302;48.796;11.978;2023-11-18T07:26:19;97670.41;;;7.33;41.87
25350;BME280;13302;48.796;11.978;2023-11-18T07:29:06;97668.69;;;7.38;41.75
25350;BME280;13302;48.796;11.978;2023-11-18T07:31:56;97671.13;;;7.39;41.46
25350;BME280;13302;48.796;11.978;2023-11-18T07:34:43;97684.06;;;7.38;41.70
25350;BME280;13302;48.796;11.978;2023-11-18T07:37:31;97684.88;;;7.39;41.78
25350;BME280;13302;48.796;11.978;2023-11-18T07:40:19;97691.19;;;7.40;41.53
25350;BME280;13302;48.796;11.978;2023-11-18T07:43:15;97697.22;;;7.42;41.59
25350;BME280;13302;48.796;11.978;2023-11-18T07:46:03;97696.22;;;7.38;41.98
25350;BME280;13302;48.796;11.978;2023-11-18T07:48:51;97704.66;;;7.41;41.71
25350;BME280;13302;48.796;11.978;2023-11-18T07:51:42;97707.78;;;7.48;41.92
25350;BME280;13302;48.796;11.978;2023-11-18T07:54:30;97702.28;;;7.48;41.95
25350;BME280;13302;48.796;11.978;2023-11-18T07:57:17;97706.16;;;7.47;42.04
25350;BME280;13302;48.796;11.978;2023-11-18T08:00:04;97702.16;;;7.53;41.80
25350;BME280;13302;48.796;11.978;2023-11-18T08:03:01;97700.00;;;7.50;41.86
25350;BME280;13302;48.796;11.978;2023-11-18T08:05:49;97701.66;;;7.51;41.98
25350;BME280;13302;48.796;11.978;2023-11-18T08:08:36;97690.66;;;7.51;42.03
25350;BME280;13302;48.796;11.978;2023-11-18T08:11:24;97699.41;;;7.53;41.68
25350;BME280;13302;48.796;11.978;2023-11-18T08:14:12;97698.06;;;7.51;41.92
25350;BME280;13302;48.796;11.978;2023-11-18T08:16:59;97699.22;;;7.50;42.02
25350;BME280;13302;48.796;11.978;2023-11-18T08:19:47;97698.28;;;7.54;41.99
25350;BME280;13302;48.796;11.978;2023-11-18T08:22:34;97696.34;;;7.55;42.01
25350;BME280;13302;48.796;11.978;2023-11-18T08:25:21;97692.66;;;7.59;42.06
25350;BME280;13302;48.796;11.978;2023-11-18T08:28:08;97695.91;;;7.61;41.96
25350;BME280;13302;48.796;11.978;2023-11-18T08:30:55;97700.78;;;7.64;41.81
25350;BME280;13302;48.796;11.978;2023-11-18T08:33:42;97705.28;;;7.60;41.85
25350;BME280;13302;48.796;11.978;2023-11-18T08:36:30;97709.88;;;7.65;42.02
25350;BME280;13302;48.796;11.978;2023-11-18T08:39:19;97700.97;;;7.68;42.14
25350;BME280;13302;48.796;11.978;2023-11-18T08:42:07;97698.84;;;7.65;41.81
25350;BME280;13302;48.796;11.978;2023-11-18T08:44:54;97705.19;;;7.65;42.22
25350;BME280;13302;48.796;11.978;2023-11-18T08:47:48;97705.19;;;7.65;42.31
25350;BME280;13302;48.796;11.978;2023-11-18T08:50:37;97703.06;;;7.62;42.30
25350;BME280;13302;48.796;11.978;2023-11-18T08:53:27;97712.16;;;7.71;42.17
25350;BME280;13302;48.796;11.978;2023-11-18T08:56:14;97702.81;;;7.72;42.07
25350;BME280;13302;48.796;11.978;2023-11-18T08:59:01;97705.75;;;7.76;41.95
25350;BME280;13302;48.796;11.978;2023-11-18T09:01:49;97709.59;;;7.75;41.96
25350;BME280;13302;48.796;11.978;2023-11-18T09:04:36;97710.13;;;7.77;41.85
25350;BME280;13302;48.796;11.978;2023-11-18T09:07:23;97711.25;;;7.76;42.08
25350;BME280;13302;48.796;11.978;2023-11-18T09:10:11;97699.41;;;7.75;42.05
25350;BME280;13302;48.796;11.978;2023-11-18T09:12:59;97698.00;;;7.78;42.03
25350;BME280;13302;48.796;11.978;2023-11-18T09:15:49;97698.81;;;7.78;42.01
25350;BME280;13302;48.796;11.978;2023-11-18T09:18:41;97703.31;;;7.74;42.33
25350;BME280;13302;48.796;11.978;2023-11-18T09:21:30;97705.56;;;7.72;42.21
25350;BME280;13302;48.796;11.978;2023-11-18T09:24:21;97719.31;;;7.72;42.50
25350;BME280;13302;48.796;11.978;2023-11-18T09:27:12;97722.94;;;7.81;41.93
25350;BME280;13302;48.796;11.978;2023-11-18T09:29:59;97729.88;;;7.79;42.33
25350;BME280;13302;48.796;11.978;2023-11-18T09:32:47;97733.97;;;7.81;42.07
25350;BME280;13302;48.796;11.978;2023-11-18T09:35:34;97730.59;;;7.84;42.13
25350;BME280;13302;48.796;11.978;2023-11-18T09:38:21;97731.09;;;7.87;42.05
25350;BME280;13302;48.796;11.978;2023-11-18T09:41:10;97733.03;;;7.86;42.02
25350;BME280;13302;48.796;11.978;2023-11-18T09:44:00;97725.25;;;7.88;42.06
25350;BME280;13302;48.796;11.978;2023-11-18T09:46:50;97727.72;;;7.90;42.44
25350;BME280;13302;48.796;11.978;2023-11-18T09:49:45;97726.38;;;7.87;42.16
25350;BME280;13302;48.796;11.978;2023-11-18T09:52:34;97735.16;;;7.89;42.15
25350;BME280;13302;48.796;11.978;2023-11-18T09:55:30;97726.91;;;7.89;42.26
25350;BME280;13302;48.796;11.978;2023-11-18T09:58:23;97723.50;;;7.92;42.44
25350;BME280;13302;48.796;11.978;2023-11-18T10:01:11;97720.75;;;7.92;42.43
25350;BME280;13302;48.796;11.978;2023-11-18T10:04:00;97718.34;;;7.91;42.69
25350;BME280;13302;48.796;11.978;2023-11-18T10:06:54;97719.53;;;7.98;42.25
25350;BME280;13302;48.796;11.978;2023-11-18T10:09:43;97708.00;;;7.96;42.39
25350;BME280;13302;48.796;11.978;2023-11-18T10:12:30;97708.81;;;7.97;42.37
25350;BME280;13302;48.796;11.978;2023-11-18T10:15:19;97708.16;;;8.00;42.52
25350;BME280;13302;48.796;11.978;2023-11-18T10:18:10;97699.13;;;7.99;42.36
25350;BME280;13302;48.796;11.978;2023-11-18T10:21:09;97689.88;;;7.95;42.28
25350;BME280;13302;48.796;11.978;2023-11-18T10:23:59;97699.31;;;8.03;42.23
25350;BME280;13302;48.796;11.978;2023-11-18T10:26:55;97689.22;;;7.98;42.47
25350;BME280;13302;48.796;11.978;2023-11-18T10:29:45;97694.41;;;8.00;42.65
25350;BME280;13302;48.796;11.978;2023-11-18T10:32:33;97701.25;;;8.02;42.52
25350;BME280;13302;48.796;11.978;2023-11-18T10:35:24;97699.78;;;8.05;42.44
25350;BME280;13302;48.796;11.978;2023-11-18T10:38:11;97696.72;;;8.06;42.90
25350;BME280;13302;48.796;11.978;2023-11-18T10:40:59;97694.84;;;8.15;42.35
25350;BME280;13302;48.796;11.978;2023-11-18T10:43:49;97692.44;;;8.22;42.24
25350;BME280;13302;48.796;11.978;2023-11-18T10:46:52;97695.22;;;8.22;42.25
25350;BME280;13302;48.796;11.978;2023-11-18T10:49:40;97692.00;;;8.29;42.15
25350;BME280;13302;48.796;11.978;2023-11-18T10:52:28;97699.94;;;8.30;42.28
25350;BME280;13302;48.796;11.978;2023-11-18T10:55:21;97699.66;;;8.32;42.38
25350;BME280;13302;48.796;11.978;2023-11-18T10:58:09;97693.16;;;8.37;41.81
25350;BME280;13302;48.796;11.978;2023-11-18T11:00:56;97690.75;;;8.35;42.29
25350;BME280;13302;48.796;11.978;2023-11-18T11:03:53;97685.88;;;8.32;42.66
25350;BME280;13302;48.796;11.978;2023-11-18T11:06:44;97679.72;;;8.35;42.83
25350;BME280;13302;48.796;11.978;2023-11-18T11:09:39;97684.75;;;8.42;42.56
25350;BME280;13302;48.796;11.978;2023-11-18T11:12:33;97675.75;;;8.50;42.48
25350;BME280;13302;48.796;11.978;2023-11-18T11:15:29;97684.19;;;8.53;42.19
25350;BME280;13302;48.796;11.978;2023-11-18T11:18:26;97687.00;;;8.62;42.18
25350;BME280;13302;48.796;11.978;2023-11-18T11:21:20;97691.69;;;8.61;41.76
25350;BME280;13302;48.796;11.978;2023-11-18T11:24:26;97697.53;;;8.60;41.85
25350;BME280;13302;48.796;11.978;2023-11-18T11:27:32;97699.16;;;8.61;41.97
25350;BME280;13302;48.796;11.978;2023-11-18T11:30:33;97698.00;;;8.62;41.47
25350;BME280;13302;48.796;11.978;2023-11-18T11:33:36;97691.38;;;8.63;41.46
25350;BME280;13302;48.796;11.978;2023-11-18T11:36:37;97689.13;;;8.65;41.46
25350;BME280;13302;48.796;11.978;2023-11-18T11:39:28;97694.94;;;8.63;41.26
25350;BME280;13302;48.796;11.978;2023-11-18T11:42:18;97688.16;;;8.61;41.30
25350;BME280;13302;48.796;11.978;2023-11-18T11:45:08;97692.88;;;8.69;41.58
25350;BME280;13302;48.796;11.978;2023-11-18T11:48:07;97680.25;;;8.77;41.34
25350;BME280;13302;48.796;11.978;2023-11-18T11:54:11;97679.09;;;8.69;41.72
25350;BME280;13302;48.796;11.978;2023-11-18T11:57:07;97671.47;;;8.74;41.59
25350;BME280;13302;48.796;11.978;2023-11-18T11:59:55;97685.13;;;8.80;41.55
25350;BME280;13302;48.796;11.978;2023-11-18T12:02:50;97682.69;;;8.87;41.37
25350;BME280;13302;48.796;11.978;2023-11-18T12:05:41;97678.53;;;8.98;41.24
25350;BME280;13302;48.796;11.978;2023-11-18T12:08:31;97682.06;;;8.98;41.36
25350;BME280;13302;48.796;11.978;2023-11-18T12:11:19;97667.31;;;9.03;41.29
25350;BME280;13302;48.796;11.978;2023-11-18T12:14:08;97659.56;;;9.05;41.25
25350;BME280;13302;48.796;11.978;2023-11-18T12:17:11;97664.25;;;9.04;41.04
25350;BME280;13302;48.796;11.978;2023-11-18T12:20:01;97660.53;;;9.09;40.98
25350;BME280;13302;48.796;11.978;2023-11-18T12:23:03;97649.16;;;9.10;40.32
25350;BME280;13302;48.796;11.978;2023-11-18T12:26:01;97653.09;;;9.09;40.72
25350;BME280;13302;48.796;11.978;2023-11-18T12:28:50;97640.41;;;9.08;40.45
25350;BME280;13302;48.796;11.978;2023-11-18T12:31:40;97639.91;;;9.06;40.67
25350;BME280;13302;48.796;11.978;2023-11-18T12:34:54;97631.16;;;9.04;40.32
25350;BME280;13302;48.796;11.978;2023-11-18T12:40:57;97598.38;;;9.03;40.50
25350;BME280;13302;48.796;11.978;2023-11-18T12:43:50;97598.88;;;9.05;40.57
25350;BME280;13302;48.796;11.978;2023-11-18T12:46:49;97589.63;;;9.01;40.35
25350;BME280;13302;48.796;11.978;2023-11-18T12:49:43;97584.13;;;9.01;40.41
25350;BME280;13302;48.796;11.978;2023-11-18T12:52:30;97579.88;;;9.03;40.59
25350;BME280;13302;48.796;11.978;2023-11-18T12:55:19;97576.66;;;9.01;40.56
25350;BME280;13302;48.796;11.978;2023-11-18T12:58:07;97584.13;;;9.01;40.52
25350;BME280;13302;48.796;11.978;2023-11-18T13:00:54;97594.34;;;9.09;40.42
25350;BME280;13302;48.796;11.978;2023-11-18T13:03:42;97585.91;;;9.05;40.07
25350;BME280;13302;48.796;11.978;2023-11-18T13:06:29;97571.16;;;9.01;39.99
25350;BME280;13302;48.796;11.978;2023-11-18T13:09:17;97570.66;;;8.99;40.45
25350;BME280;13302;48.796;11.978;2023-11-18T13:12:15;97566.75;;;9.00;40.44
25350;BME280;13302;48.796;11.978;2023-11-18T13:15:02;97574.88;;;8.97;40.55
25350;BME280;13302;48.796;11.978;2023-11-18T13:18:03;97573.56;;;8.94;40.32
25350;BME280;13302;48.796;11.978;2023-11-18T13:20:57;97568.38;;;8.93;40.28
25350;BME280;13302;48.796;11.978;2023-11-18T13:23:46;97564.16;;;8.95;40.27
25350;BME280;13302;48.796;11.978;2023-11-18T13:26:42;97563.34;;;8.95;40.44
25350;BME280;13302;48.796;11.978;2023-11-18T13:29:30;97561.41;;;8.95;40.20
25350;BME280;13302;48.796;11.978;2023-11-18T13:32:18;97556.22;;;8.94;40.43
25350;BME280;13302;48.796;11.978;2023-11-18T13:35:10;97554.59;;;8.93;40.36
25350;BME280;13302;48.796;11.978;2023-11-18T13:38:01;97564.50;;;8.94;40.47
25350;BME280;13302;48.796;11.978;2023-11-18T13:40:51;97564.50;;;8.94;40.25
25350;BME280;13302;48.796;11.978;2023-11-18T13:43:45;97551.00;;;8.92;40.27
25350;BME280;13302;48.796;11.978;2023-11-18T13:46:38;97551.00;;;8.92;40.33
25350;BME280;13302;48.796;11.978;2023-11-18T13:49:29;97548.56;;;8.91;40.31
25350;BME280;13302;48.796;11.978;2023-11-18T13:52:17;97540.00;;;8.92;40.12
25350;BME280;13302;48.796;11.978;2023-11-18T13:55:06;97540.47;;;8.94;40.25
25350;BME280;13302;48.796;11.978;2023-11-18T13:57:54;97546.31;;;8.93;40.52
25350;BME280;13302;48.796;11.978;2023-11-18T14:00:42;97554.25;;;8.94;40.50
25350;BME280;13302;48.796;11.978;2023-11-18T14:03:30;97562.22;;;8.96;40.21
25350;BME280;13302;48.796;11.978;2023-11-18T14:06:21;97562.22;;;8.96;40.18
25350;BME280;13302;48.796;11.978;2023-11-18T14:09:09;97565.78;;;8.96;40.23
25350;BME280;13302;48.796;11.978;2023-11-18T14:11:58;97561.56;;;8.99;40.02
25350;BME280;13302;48.796;11.978;2023-11-18T14:14:45;97557.34;;;9.01;40.03
25350;BME280;13302;48.796;11.978;2023-11-18T14:17:32;97542.41;;;9.02;40.48
25350;BME280;13302;48.796;11.978;2023-11-18T14:20:19;97543.88;;;9.00;40.40
25350;BME280;13302;48.796;11.978;2023-11-18T14:23:09;97542.59;;;8.97;40.46
25350;BME280;13302;48.796;11.978;2023-11-18T14:25:58;97540.81;;;8.93;40.53
25350;BME280;13302;48.796;11.978;2023-11-18T14:28:45;97537.53;;;8.91;40.58
25350;BME280;13302;48.796;11.978;2023-11-18T14:31:33;97528.97;;;8.92;40.67
25350;BME280;13302;48.796;11.978;2023-11-18T14:34:24;97524.56;;;8.91;40.33
25350;BME280;13302;48.796;11.978;2023-11-18T14:37:12;97520.38;;;8.94;40.46
25350;BME280;13302;48.796;11.978;2023-11-18T14:39:59;97536.09;;;8.93;40.64
25350;BME280;13302;48.796;11.978;2023-11-18T14:42:46;97532.19;;;8.94;40.30
25350;BME280;13302;48.796;11.978;2023-11-18T14:45:36;97540.31;;;8.91;40.35
25350;BME280;13302;48.796;11.978;2023-11-18T14:48:24;97538.69;;;8.90;40.56
25350;BME280;13302;48.796;11.978;2023-11-18T14:51:11;97534.63;;;8.87;40.20
25350;BME280;13302;48.796;11.978;2023-11-18T14:53:58;97538.03;;;8.84;40.44
25350;BME280;13302;48.796;11.978;2023-11-18T14:56:45;97528.78;;;8.80;40.79
25350;BME280;13302;48.796;11.978;2023-11-18T14:59:36;97524.72;;;8.77;40.45
25350;BME280;13302;48.796;11.978;2023-11-18T15:02:23;97524.72;;;8.77;40.50
25350;BME280;13302;48.796;11.978;2023-11-18T15:05:12;97514.03;;;8.76;40.35